Needham, Indiana
Current Conditions -  °F | °C
As of 6:53 PM on Wednesday 28 Jan 2015 (Local Time) from KGEZ Reporting Station
Clear Clear  
Wind Chill: 25°   Ceiling: Unl
Heat Index: 33°   Visibility: 10mi
Dew Point: 21°   Wind: 9mph
Humidity: 61%   Direction: 140°SE
Pressure: 30.17"   Gusts: NA
Location:  39.53°N, 85.97°W
Report Text: KGEZ 282353Z AUTO 14008KT 10SM CLR 01/M06 A3017 RMK AO2 SLP227 T00061061 10028 20000 58014
Loading
Personal Weather Stations






























Interactive Weather Map New forecast layout! Learn more

10-Day Weather Forecast

Advertisements
Track Severe Weather on mobile